Time,TemperatureF,DewpointF,PressureIn,WindDirection,WindDirectionDegrees,WindSpeedMPH,WindSpeedGustMPH,Humidity,HourlyPrecipIn,Conditions,Clouds,dailyrainin,SoftwareType,DateUTC
2013-03-13 00:00:00,28.4,25.6,29.93,East,97,8.4,23.1,89,0.00,,,0.15,VWS V14.01,2013-03-13 04:00:00,
2013-03-13 00:01:00,28.4,25.6,29.92,North,3,6.2,28.1,89,0.00,,,0.15,VWS V14.01,2013-03-13 04:01:00,
2013-03-13 00:02:00,28.4,25.7,29.92,North,1,5.2,28.1,89,0.00,,,0.15,VWS V14.01,2013-03-13 04:02:00,
2013-03-13 00:03:00,28.0,24.9,29.91,NW,314,0.0,7.1,88,0.00,,,0.00,VWS V14.01,2013-03-13 04:03:00,
2013-03-13 00:04:00,28.0,24.9,29.91,North,11,6.0,10.6,88,0.00,,,0.00,VWS V14.01,2013-03-13 04:04:00,
2013-03-13 00:05:00,28.1,25.0,29.91,NNW,332,9.5,17.1,88,0.00,,,0.00,VWS V14.01,2013-03-13 04:05:00,
2013-03-13 00:06:00,27.9,24.8,29.92,WNW,300,3.0,17.1,88,0.00,,,0.00,VWS V14.01,2013-03-13 04:06:00,
2013-03-13 00:07:00,28.4,25.6,29.93,NNE,30,3.2,28.1,89,0.00,,,0.15,VWS V14.01,2013-03-13 04:07:00,
2013-03-13 00:08:00,28.0,24.9,29.91,NNW,328,7.6,17.1,88,0.00,,,0.00,VWS V14.01,2013-03-13 04:08:00,
2013-03-13 00:09:00,28.0,25.0,29.92,NE,42,0.0,17.1,88,0.00,,,0.00,VWS V14.01,2013-03-13 04:09:00,
2013-03-13 00:10:00,28.0,25.0,29.91,NE,42,0.0,17.1,88,0.00,,,0.00,VWS V14.01,2013-03-13 04:10:00,
2013-03-13 00:11:00,28.0,25.0,29.91,NE,42,0.0,17.1,88,0.00,,,0.00,VWS V14.01,2013-03-13 04:11:00,
2013-03-13 00:12:00,27.9,24.9,29.92,NNE,17,3.0,17.1,88,0.00,,,0.00,VWS V14.01,2013-03-13 04:12:00,
2013-03-13 00:13:00,28.4,25.6,29.93,NE,52,12.3,28.1,89,0.00,,,0.15,VWS V14.01,2013-03-13 04:13:00,
2013-03-13 00:14:00,27.9,24.8,29.91,NNE,21,3.2,17.1,88,0.00,,,0.00,VWS V14.01,2013-03-13 04:14:00,
2013-03-13 00:15:00,27.8,24.7,29.92,NNE,21,0.0,17.1,88,0.00,,,0.00,VWS V14.01,2013-03-13 04:15:00,
2013-03-13 00:16:00,27.8,24.7,29.91,NE,53,4.3,17.1,88,0.00,,,0.00,VWS V14.01,2013-03-13 04:16:00,
2013-03-13 00:17:00,27.8,24.7,29.92,North,356,0.0,17.1,88,0.00,,,0.00,VWS V14.01,2013-03-13 04:17:00,
2013-03-13 00:18:00,28.3,25.5,29.93,North,10,16.0,28.1,89,0.00,,,0.15,VWS V14.01,2013-03-13 04:18:00,
2013-03-13 00:19:00,27.7,24.6,29.91,ENE,66,5.8,17.1,88,0.00,,,0.00,VWS V14.01,2013-03-13 04:19:00,
2013-03-13 00:20:00,27.7,24.7,29.91,NNW,328,0.0,17.1,88,0.00,,,0.00,VWS V14.01,2013-03-13 04:20:00,
2013-03-13 00:21:00,27.7,24.7,29.92,NNW,328,0.0,17.1,88,0.00,,,0.00,VWS V14.01,2013-03-13 04:21:00,
2013-03-13 00:22:00,27.8,24.8,29.92,NNW,335,3.2,17.1,88,0.00,,,0.00,VWS V14.01,2013-03-13 04:22:00,
2013-03-13 00:23:00,28.3,25.5,29.93,NE,35,15.5,28.1,89,0.00,,,0.15,VWS V14.01,2013-03-13 04:23:00,
2013-03-13 00:24:00,27.7,24.7,29.91,North,3,0.0,17.1,88,0.00,,,0.00,VWS V14.01,2013-03-13 04:24:00,
2013-03-13 00:25:00,27.7,24.7,29.91,NNW,342,10.3,17.1,88,0.00,,,0.00,VWS V14.01,2013-03-13 04:25:00,
2013-03-13 00:26:00,27.7,24.7,29.91,NW,309,5.8,17.1,88,0.00,,,0.00,VWS V14.01,2013-03-13 04:26:00,
2013-03-13 00:27:00,27.7,24.7,29.91,NNW,340,8.4,17.1,88,0.00,,,0.00,VWS V14.01,2013-03-13 04:27:00,
2013-03-13 00:28:00,27.6,24.5,29.91,NW,325,6.7,17.1,88,0.00,,,0.00,VWS V14.01,2013-03-13 04:28:00,
2013-03-13 00:29:00,28.2,25.4,29.93,NNE,14,10.6,28.1,89,0.00,,,0.15,VWS V14.01,2013-03-13 04:29:00,
2013-03-13 00:30:00,27.6,24.5,29.91,NNW,328,6.0,17.3,88,0.00,,,0.00,VWS V14.01,2013-03-13 04:30:00,
2013-03-13 00:31:00,27.7,24.7,29.92,NW,323,3.5,17.3,88,0.00,,,0.00,VWS V14.01,2013-03-13 04:31:00,
2013-03-13 00:32:00,27.5,24.5,29.92,NNE,17,0.0,17.3,88,0.00,,,0.00,VWS V14.01,2013-03-13 04:32:00,
2013-03-13 00:33:00,27.7,24.7,29.92,NNE,17,0.0,17.3,88,0.00,,,0.00,VWS V14.01,2013-03-13 04:33:00,
2013-03-13 00:34:00,28.3,25.6,29.92,NW,322,14.7,28.1,89,0.00,,,0.15,VWS V14.01,2013-03-13 04:34:00,
2013-03-13 00:35:00,27.7,24.7,29.92,NNW,338,4.7,17.3,88,0.00,,,0.00,VWS V14.01,2013-03-13 04:35:00,
2013-03-13 00:36:00,27.5,24.5,29.91,NNE,25,0.0,17.3,88,0.00,,,0.00,VWS V14.01,2013-03-13 04:36:00,
2013-03-13 00:37:00,27.6,24.6,29.92,NNE,25,0.0,17.3,88,0.00,,,0.00,VWS V14.01,2013-03-13 04:37:00,
2013-03-13 00:38:00,27.5,24.5,29.92,NNE,25,0.0,17.3,88,0.00,,,0.00,VWS V14.01,2013-03-13 04:38:00,
2013-03-13 00:39:00,28.4,25.6,29.92,East,101,4.5,28.1,89,0.00,,,0.15,VWS V14.01,2013-03-13 04:39:00,
2013-03-13 00:40:00,27.6,24.6,29.92,NNW,343,0.0,17.3,88,0.00,,,0.00,VWS V14.01,2013-03-13 04:40:00,
2013-03-13 00:43:00,27.5,24.6,29.92,North,353,0.0,17.3,89,0.00,,,0.00,VWS V14.01,2013-03-13 04:43:00,
2013-03-13 00:44:00,28.2,25.4,29.92,North,4,7.3,28.1,89,0.00,,,0.15,VWS V14.01,2013-03-13 04:44:00,
2013-03-13 00:47:00,27.5,24.6,29.92,NNW,346,0.0,17.3,89,0.00,,,0.00,VWS V14.01,2013-03-13 04:47:00,
2013-03-13 00:48:00,27.6,24.8,29.92,NNW,346,0.0,17.3,89,0.00,,,0.00,VWS V14.01,2013-03-13 04:48:00,
2013-03-13 00:49:00,28.1,25.1,29.92,SE,125,5.0,28.1,88,0.00,,,0.15,VWS V14.01,2013-03-13 04:49:00,
2013-03-13 00:51:00,27.5,24.6,29.92,NNW,339,0.0,17.3,89,0.00,,,0.00,VWS V14.01,2013-03-13 04:51:00,
2013-03-13 00:54:00,28.1,25.2,29.91,NNE,13,5.0,28.1,89,0.00,,,0.15,VWS V14.01,2013-03-13 04:54:00,
2013-03-13 00:58:00,27.5,24.7,29.91,NNW,333,0.0,17.3,89,0.00,,,0.00,VWS V14.01,2013-03-13 04:58:00,
2013-03-13 01:00:00,27.6,24.8,29.91,NNE,31,4.5,17.3,89,0.00,,,0.00,VWS V14.01,2013-03-13 05:00:00,
2013-03-13 01:04:00,27.6,24.8,29.91,NNW,345,0.0,11.7,89,0.00,,,0.00,VWS V14.01,2013-03-13 05:04:00,
2013-03-13 01:09:00,27.7,24.9,29.91,North,353,4.1,11.7,89,0.00,,,0.00,VWS V14.01,2013-03-13 05:09:00,
2013-03-13 01:28:00,27.6,24.6,29.92,North,359,8.4,17.3,88,0.00,,,0.00,VWS V14.01,2013-03-13 05:28:00,
2013-03-13 01:35:00,27.6,24.6,29.92,NNE,25,0.0,17.3,88,0.00,,,0.00,VWS V14.01,2013-03-13 05:35:00,
2013-03-13 01:40:00,27.5,24.6,29.92,North,6,4.7,17.3,89,0.00,,,0.00,VWS V14.01,2013-03-13 05:40:00,
2013-03-13 01:46:00,27.6,24.7,29.92,NNW,346,5.2,17.3,89,0.00,,,0.00,VWS V14.01,2013-03-13 05:46:00,
2013-03-13 01:52:00,27.5,24.6,29.91,NNW,347,0.6,17.3,89,0.00,,,0.00,VWS V14.01,2013-03-13 05:52:00,
2013-03-13 01:57:00,27.5,24.7,29.91,North,357,3.5,11.7,89,0.00,,,0.00,VWS V14.01,2013-03-13 05:57:00,
2013-03-13 02:02:00,27.6,24.8,29.91,NNW,345,0.0,11.7,89,0.00,,,0.00,VWS V14.01,2013-03-13 06:02:00,
2013-03-13 02:07:00,27.7,24.9,29.91,NE,52,0.0,11.7,89,0.00,,,0.00,VWS V14.01,2013-03-13 06:07:00,
2013-03-13 02:12:00,27.8,24.8,29.91,NNW,347,0.0,13.4,88,0.00,,,0.00,VWS V14.01,2013-03-13 06:12:00,
2013-03-13 02:18:00,27.8,24.9,29.90,East,89,0.0,13.4,88,0.00,,,0.00,VWS V14.01,2013-03-13 06:18:00,
2013-03-13 02:23:00,27.8,24.8,29.90,East,89,0.0,13.4,88,0.00,,,0.00,VWS V14.01,2013-03-13 06:23:00,
2013-03-13 02:28:00,28.0,25.0,29.91,East,89,0.0,13.4,88,0.00,,,0.00,VWS V14.01,2013-03-13 06:28:00,
2013-03-13 02:33:00,27.9,24.9,29.90,East,89,0.0,13.4,88,0.00,,,0.00,VWS V14.01,2013-03-13 06:33:00,
2013-03-13 02:38:00,27.9,24.8,29.90,NNW,347,0.0,13.4,88,0.00,,,0.00,VWS V14.01,2013-03-13 06:38:00,
2013-03-13 02:44:00,28.0,24.9,29.90,NNW,347,0.0,13.4,88,0.00,,,0.00,VWS V14.01,2013-03-13 06:44:00,
2013-03-13 02:49:00,28.1,24.8,29.89,NE,38,0.0,13.4,87,0.00,,,0.00,VWS V14.01,2013-03-13 06:49:00,
2013-03-13 02:54:00,28.2,24.8,29.89,NE,38,0.0,13.4,87,0.00,,,0.00,VWS V14.01,2013-03-13 06:54:00,
2013-03-13 02:59:00,28.1,24.7,29.89,NNW,335,1.1,5.8,87,0.00,,,0.00,VWS V14.01,2013-03-13 06:59:00,
2013-03-13 03:04:00,28.1,24.6,29.89,NNW,333,0.0,7.1,87,0.00,,,0.00,VWS V14.01,2013-03-13 07:04:00,
2013-03-13 03:09:00,28.1,24.5,29.88,North,1,0.0,7.1,86,0.00,,,0.00,VWS V14.01,2013-03-13 07:09:00,
2013-03-13 03:14:00,28.1,24.4,29.88,North,1,0.0,7.1,86,0.00,,,0.00,VWS V14.01,2013-03-13 07:14:00,
2013-03-13 03:19:00,28.1,24.5,29.88,NNW,328,0.0,7.5,86,0.00,,,0.00,VWS V14.01,2013-03-13 07:19:00,
2013-03-13 03:25:00,28.1,24.5,29.88,NW,323,0.0,7.5,86,0.00,,,0.00,VWS V14.01,2013-03-13 07:25:00,
2013-03-13 03:30:00,28.1,24.6,29.88,North,350,1.9,11.0,87,0.00,,,0.00,VWS V14.01,2013-03-13 07:30:00,
2013-03-13 03:35:00,27.9,24.9,29.88,NNW,345,2.1,14.2,88,0.00,,,0.00,VWS V14.01,2013-03-13 07:35:00,
2013-03-13 03:41:00,27.6,25.2,29.88,NW,308,3.5,17.1,91,0.00,,,0.00,VWS V14.01,2013-03-13 07:41:00,
2013-03-13 03:46:00,27.4,25.5,29.88,NNW,347,6.2,17.1,92,0.00,,,0.00,VWS V14.01,2013-03-13 07:46:00,
2013-03-13 03:52:00,27.1,25.5,29.88,North,354,0.0,17.1,94,0.00,,,0.00,VWS V14.01,2013-03-13 07:52:00,
2013-03-13 03:57:00,27.0,25.6,29.88,NNW,343,0.0,0.0,94,0.00,,,0.00,VWS V14.01,2013-03-13 07:57:00,
2013-03-13 04:02:00,26.9,25.6,29.87,SE,139,0.0,18.8,95,0.00,,,0.00,VWS V14.01,2013-03-13 08:02:00,
2013-03-13 04:08:00,26.6,25.5,29.87,ESE,110,0.0,18.8,96,0.00,,,0.00,VWS V14.01,2013-03-13 08:08:00,
2013-03-13 04:13:00,26.7,25.6,29.87,NNE,32,2.4,18.8,96,0.00,,,0.00,VWS V14.01,2013-03-13 08:13:00,
2013-03-13 04:18:00,26.6,25.5,29.87,NE,49,0.0,18.8,96,0.00,,,0.00,VWS V14.01,2013-03-13 08:18:00,
2013-03-13 04:23:00,26.7,25.6,29.87,North,1,0.0,18.8,96,0.00,,,0.00,VWS V14.01,2013-03-13 08:23:00,
2013-03-13 04:29:00,26.8,25.8,29.86,NW,326,0.0,18.8,96,0.00,,,0.00,VWS V14.01,2013-03-13 08:29:00,
2013-03-13 04:34:00,26.8,25.8,29.86,NE,41,0.0,18.8,96,0.00,,,0.00,VWS V14.01,2013-03-13 08:34:00,
2013-03-13 04:39:00,26.8,25.8,29.86,NNW,346,0.0,18.8,96,0.00,,,0.00,VWS V14.01,2013-03-13 08:39:00,
2013-03-13 04:44:00,26.8,25.8,29.86,North,4,0.0,18.8,96,0.00,,,0.00,VWS V14.01,2013-03-13 08:44:00,
2013-03-13 04:49:00,26.8,25.8,29.85,NNW,336,0.0,24.8,96,0.00,,,0.00,VWS V14.01,2013-03-13 08:49:00,
2013-03-13 04:55:00,26.8,25.8,29.85,North,353,7.1,24.8,96,0.00,,,0.00,VWS V14.01,2013-03-13 08:55:00,
2013-03-13 05:00:00,26.9,25.9,29.85,NNW,335,0.0,0.0,96,0.00,,,0.00,VWS V14.01,2013-03-13 09:00:00,
2013-03-13 05:05:00,26.8,25.8,29.85,NNW,336,0.0,17.5,96,0.00,,,0.00,VWS V14.01,2013-03-13 09:05:00,
2013-03-13 05:10:00,26.7,25.8,29.85,NNW,338,6.3,17.5,96,0.00,,,0.00,VWS V14.01,2013-03-13 09:10:00,
2013-03-13 05:15:00,26.8,26.0,29.86,NNW,330,0.0,18.1,97,0.00,,,0.00,VWS V14.01,2013-03-13 09:15:00,
2013-03-13 05:20:00,26.7,25.9,29.85,NE,34,0.0,23.5,97,0.00,,,0.00,VWS V14.01,2013-03-13 09:20:00,
2013-03-13 05:25:00,26.7,25.9,29.86,ENE,59,6.7,23.5,97,0.00,,,0.00,VWS V14.01,2013-03-13 09:25:00,
2013-03-13 05:31:00,26.6,25.8,29.85,NNE,17,5.2,23.5,97,0.00,,,0.00,VWS V14.01,2013-03-13 09:31:00,
2013-03-13 05:36:00,26.6,25.9,29.85,NNW,343,10.8,23.5,97,0.00,,,0.00,VWS V14.01,2013-03-13 09:36:00,
2013-03-13 05:41:00,26.6,25.9,29.85,NNW,346,0.0,23.5,97,0.00,,,0.00,VWS V14.01,2013-03-13 09:41:00,
2013-03-13 05:47:00,26.6,25.9,29.85,NW,325,4.1,23.5,97,0.00,,,0.00,VWS V14.01,2013-03-13 09:47:00,
2013-03-13 05:52:00,26.6,25.9,29.85,NNE,17,3.2,23.5,97,0.00,,,0.00,VWS V14.01,2013-03-13 09:52:00,
2013-03-13 05:57:00,26.7,25.9,29.85,NW,325,5.0,22.6,97,0.00,,,0.00,VWS V14.01,2013-03-13 09:57:00,
2013-03-13 06:02:00,26.6,25.7,29.86,NNE,14,0.0,31.5,96,0.00,,,0.00,VWS V14.01,2013-03-13 10:02:00,
2013-03-13 06:07:00,26.7,25.9,29.85,NNW,328,0.0,31.5,97,0.00,,,0.00,VWS V14.01,2013-03-13 10:07:00,
2013-03-13 06:12:00,26.6,25.8,29.85,ENE,68,3.9,31.5,97,0.00,,,0.00,VWS V14.01,2013-03-13 10:12:00,
2013-03-13 06:17:00,26.6,25.8,29.86,ENE,65,0.0,31.5,97,0.00,,,0.00,VWS V14.01,2013-03-13 10:17:00,
2013-03-13 06:23:00,26.7,25.8,29.86,NNW,333,0.0,31.5,96,0.00,,,0.00,VWS V14.01,2013-03-13 10:23:00,
2013-03-13 06:28:00,26.8,25.7,29.86,North,359,8.8,31.5,96,0.00,,,0.00,VWS V14.01,2013-03-13 10:28:00,
2013-03-13 06:33:00,26.6,25.4,29.85,NNE,14,0.0,31.5,95,0.00,,,0.00,VWS V14.01,2013-03-13 10:33:00,
2013-03-13 06:38:00,26.4,25.2,29.85,East,87,8.2,31.5,95,0.00,,,0.00,VWS V14.01,2013-03-13 10:38:00,
2013-03-13 06:43:00,26.4,25.3,29.85,ENE,60,0.0,31.5,96,0.00,,,0.00,VWS V14.01,2013-03-13 10:43:00,
2013-03-13 06:48:00,26.4,25.4,29.85,North,1,0.0,31.5,96,0.00,,,0.00,VWS V14.01,2013-03-13 10:48:00,
2013-03-13 06:53:00,26.4,25.4,29.85,North,350,0.0,31.5,96,0.00,,,0.00,VWS V14.01,2013-03-13 10:53:00,
2013-03-13 06:58:00,26.5,25.5,29.86,NE,48,0.0,8.8,96,0.00,,,0.00,VWS V14.01,2013-03-13 10:58:00,
2013-03-13 07:03:00,26.5,25.5,29.86,North,356,10.4,17.0,96,0.00,,,0.00,VWS V14.01,2013-03-13 11:03:00,
2013-03-13 07:08:00,26.3,25.3,29.86,NNW,332,13.2,17.3,96,0.00,,,0.00,VWS V14.01,2013-03-13 11:08:00,
2013-03-13 07:13:00,26.4,25.4,29.85,North,359,1.1,17.3,96,0.00,,,0.00,VWS V14.01,2013-03-13 11:13:00,
2013-03-13 07:19:00,26.4,25.4,29.86,North,350,0.0,17.3,96,0.00,,,0.00,VWS V14.01,2013-03-13 11:19:00,
2013-03-13 07:24:00,26.4,25.4,29.86,NE,39,0.0,17.3,96,0.00,,,0.00,VWS V14.01,2013-03-13 11:24:00,
2013-03-13 07:29:00,26.4,25.3,29.85,NW,305,6.2,17.7,96,0.00,,,0.00,VWS V14.01,2013-03-13 11:29:00,
2013-03-13 07:34:00,26.3,25.1,29.85,North,359,2.1,21.6,95,0.00,,,0.00,VWS V14.01,2013-03-13 11:34:00,
2013-03-13 07:39:00,26.4,25.2,29.86,NNW,342,6.9,21.6,95,0.00,,,0.00,VWS V14.01,2013-03-13 11:39:00,
2013-03-13 07:44:00,26.3,25.1,29.85,NNW,335,8.8,21.6,95,0.00,,,0.00,VWS V14.01,2013-03-13 11:44:00,
2013-03-13 07:49:00,26.2,25.1,29.85,ESE,115,0.0,21.6,96,0.00,,,0.00,VWS V14.01,2013-03-13 11:49:00,
2013-03-13 07:55:00,26.4,25.3,29.85,NNW,338,0.0,21.6,96,0.00,,,0.00,VWS V14.01,2013-03-13 11:55:00,
2013-03-13 08:00:00,26.3,25.3,29.85,NW,323,2.8,21.3,96,0.00,,,0.00,VWS V14.01,2013-03-13 12:00:00,
2013-03-13 08:05:00,26.3,25.4,29.85,NNW,339,12.7,21.3,96,0.00,,,0.00,VWS V14.01,2013-03-13 12:05:00,
2013-03-13 08:10:00,26.3,25.4,29.85,ENE,76,12.5,21.3,96,0.00,,,0.00,VWS V14.01,2013-03-13 12:10:00,
2013-03-13 08:16:00,26.4,25.5,29.85,NNW,329,4.3,21.3,96,0.00,,,0.00,VWS V14.01,2013-03-13 12:16:00,
2013-03-13 08:21:00,26.4,25.5,29.85,North,359,13.4,22.7,96,0.00,,,0.00,VWS V14.01,2013-03-13 12:21:00,
2013-03-13 08:26:00,26.2,25.3,29.85,East,90,4.7,31.3,96,0.00,,,0.00,VWS V14.01,2013-03-13 12:26:00,
2013-03-13 08:31:00,26.2,25.3,29.85,NNW,336,17.0,34.7,96,0.00,,,0.00,VWS V14.01,2013-03-13 12:31:00,
2013-03-13 08:36:00,26.2,25.3,29.85,North,359,11.7,34.7,96,0.00,,,0.00,VWS V14.01,2013-03-13 12:36:00,
2013-03-13 08:41:00,26.3,25.4,29.85,North,6,13.2,34.7,96,0.00,,,0.00,VWS V14.01,2013-03-13 12:41:00,
2013-03-13 08:46:00,26.2,25.4,29.85,NE,35,0.0,34.7,97,0.00,,,0.00,VWS V14.01,2013-03-13 12:46:00,
2013-03-13 08:51:00,26.2,25.3,29.85,North,3,11.7,34.7,96,0.00,,,0.00,VWS V14.01,2013-03-13 12:51:00,
2013-03-13 08:56:00,25.9,24.8,29.86,NW,304,15.8,43.1,96,0.00,,,0.00,VWS V14.01,2013-03-13 12:56:00,
2013-03-13 09:02:00,25.6,24.7,29.86,NE,42,4.1,37.1,96,0.00,,,0.00,VWS V14.01,2013-03-13 13:02:00,
2013-03-13 09:07:00,25.7,24.8,29.85,NNE,28,16.8,37.1,96,0.00,,,0.00,VWS V14.01,2013-03-13 13:07:00,
2013-03-13 09:12:00,25.5,24.4,29.86,NW,322,3.9,37.1,95,0.00,,,0.00,VWS V14.01,2013-03-13 13:12:00,
2013-03-13 09:17:00,25.5,24.2,29.86,North,352,11.7,37.1,95,0.00,,,0.00,VWS V14.01,2013-03-13 13:17:00,
2013-03-13 09:23:00,25.5,24.1,29.86,North,349,16.2,37.1,94,0.00,,,0.00,VWS V14.01,2013-03-13 13:23:00,
2013-03-13 09:28:00,25.8,24.3,29.86,NNW,332,11.6,37.1,94,0.00,,,0.00,VWS V14.01,2013-03-13 13:28:00,
2013-03-13 09:33:00,26.1,24.4,29.86,NNW,342,12.1,37.1,93,0.00,,,0.00,VWS V14.01,2013-03-13 13:33:00,
2013-03-13 09:38:00,25.9,24.0,29.86,North,11,9.7,37.1,92,0.00,,,0.00,VWS V14.01,2013-03-13 13:38:00,
2013-03-13 09:43:00,26.1,24.4,29.86,ENE,77,1.1,37.1,93,0.00,,,0.00,VWS V14.01,2013-03-13 13:43:00,
2013-03-13 09:49:00,26.3,24.5,29.86,NNW,345,9.7,37.1,93,0.00,,,0.00,VWS V14.01,2013-03-13 13:49:00,
2013-03-13 09:54:00,26.3,23.8,29.86,North,359,9.3,37.1,90,0.00,,,0.00,VWS V14.01,2013-03-13 13:54:00,
2013-03-13 09:59:00,26.7,24.3,29.86,ENE,60,11.6,25.7,91,0.00,,,0.00,VWS V14.01,2013-03-13 13:59:00,
2013-03-13 10:05:00,26.8,24.2,29.86,WNW,301,2.8,26.5,90,0.00,,,0.00,VWS V14.01,2013-03-13 14:05:00,
2013-03-13 10:10:00,27.1,24.2,29.86,NNW,330,13.8,26.5,89,0.00,,,0.00,VWS V14.01,2013-03-13 14:10:00,
2013-03-13 10:15:00,27.2,23.9,29.86,NNW,339,17.1,32.1,87,0.00,,,0.00,VWS V14.01,2013-03-13 14:15:00,
2013-03-13 10:20:00,27.2,23.6,29.86,NW,309,6.9,33.0,86,0.00,,,0.00,VWS V14.01,2013-03-13 14:20:00,
2013-03-13 10:25:00,27.3,23.5,29.86,WNW,298,16.2,33.0,85,0.00,,,0.00,VWS V14.01,2013-03-13 14:25:00,
2013-03-13 10:31:00,27.3,23.6,29.87,North,357,2.8,33.0,86,0.00,,,0.00,VWS V14.01,2013-03-13 14:31:00,
2013-03-13 10:36:00,27.5,23.8,29.87,NNW,332,19.0,33.0,86,0.00,,,0.00,VWS V14.01,2013-03-13 14:36:00,
2013-03-13 10:42:00,27.5,23.5,29.87,ENE,76,11.6,33.0,85,0.00,,,0.00,VWS V14.01,2013-03-13 14:42:00,
2013-03-13 10:47:00,27.2,23.7,29.87,NNW,330,0.0,33.0,87,0.00,,,0.00,VWS V14.01,2013-03-13 14:47:00,
2013-03-13 10:52:00,27.2,23.7,29.87,North,350,6.0,33.0,87,0.00,,,0.00,VWS V14.01,2013-03-13 14:52:00,
2013-03-13 10:57:00,27.5,24.0,29.88,North,359,9.9,9.9,86,0.00,,,0.00,VWS V14.01,2013-03-13 14:57:00,
2013-03-13 11:03:00,28.2,24.3,29.88,NNW,328,2.2,23.1,85,0.00,,,0.00,VWS V14.01,2013-03-13 15:03:00,
2013-03-13 11:08:00,28.5,23.7,29.87,NE,53,14.2,25.4,82,0.00,,,0.00,VWS V14.01,2013-03-13 15:08:00,
2013-03-13 11:13:00,28.7,23.9,29.87,NNW,342,20.5,25.7,82,0.00,,,0.00,VWS V14.01,2013-03-13 15:13:00,
2013-03-13 11:18:00,28.7,23.2,29.87,NW,325,14.4,27.8,80,0.00,,,0.00,VWS V14.01,2013-03-13 15:18:00,
2013-03-13 11:23:00,28.4,23.5,29.87,North,359,17.9,34.7,82,0.00,,,0.00,VWS V14.01,2013-03-13 15:23:00,
2013-03-13 11:28:00,28.8,23.7,29.87,NNW,347,9.9,34.7,81,0.00,,,0.00,VWS V14.01,2013-03-13 15:28:00,
2013-03-13 11:34:00,29.0,23.8,29.87,North,4,7.3,34.7,81,0.00,,,0.00,VWS V14.01,2013-03-13 15:34:00,
2013-03-13 11:39:00,29.0,23.9,29.87,NW,322,14.9,34.7,81,0.00,,,0.00,VWS V14.01,2013-03-13 15:39:00,
2013-03-13 11:44:00,29.0,23.7,29.88,North,349,11.2,34.7,80,0.00,,,0.00,VWS V14.01,2013-03-13 15:44:00,
2013-03-13 11:49:00,28.7,22.8,29.87,NNW,345,6.9,34.7,78,0.00,,,0.00,VWS V14.01,2013-03-13 15:49:00,
2013-03-13 11:55:00,28.4,22.9,29.87,North,4,5.0,34.7,79,0.00,,,0.00,VWS V14.01,2013-03-13 15:55:00,
2013-03-13 12:00:00,29.1,23.3,29.87,NNW,339,17.0,19.2,79,0.00,,,0.00,VWS V14.01,2013-03-13 16:00:00,
2013-03-13 12:05:00,29.6,22.8,29.87,NNW,342,12.3,30.6,76,0.00,,,0.00,VWS V14.01,2013-03-13 16:05:00,
2013-03-13 12:10:00,29.8,22.5,29.87,North,349,6.5,32.4,74,0.00,,,0.00,VWS V14.01,2013-03-13 16:10:00,
2013-03-13 12:15:00,29.9,22.9,29.87,SSE,165,4.8,32.4,75,0.00,,,0.00,VWS V14.01,2013-03-13 16:15:00,
2013-03-13 12:20:00,30.0,22.8,29.87,NNW,342,22.4,32.4,74,0.00,,,0.00,VWS V14.01,2013-03-13 16:20:00,
2013-03-13 12:26:00,29.9,23.1,29.86,North,354,3.5,50.5,76,0.00,,,0.00,VWS V14.01,2013-03-13 16:26:00,
2013-03-13 12:32:00,29.8,23.4,29.86,NNW,340,16.4,50.5,77,0.00,,,0.00,VWS V14.01,2013-03-13 16:32:00,
2013-03-13 12:37:00,30.1,23.6,29.86,ENE,59,14.7,50.5,76,0.00,,,0.00,VWS V14.01,2013-03-13 16:37:00,
2013-03-13 12:42:00,31.1,23.4,29.86,NNW,347,6.5,50.5,73,0.00,,,0.00,VWS V14.01,2013-03-13 16:42:00,
2013-03-13 12:47:00,30.9,23.0,29.86,SE,127,18.1,50.5,72,0.00,,,0.00,VWS V14.01,2013-03-13 16:47:00,
2013-03-13 12:52:00,30.0,23.3,29.86,North,7,0.0,50.5,76,0.00,,,0.00,VWS V14.01,2013-03-13 16:52:00,
2013-03-13 12:57:00,29.1,25.6,29.87,North,359,8.8,22.4,87,0.00,,,0.00,VWS V14.01,2013-03-13 16:57:00,
2013-03-13 13:03:00,29.1,25.5,29.87,NW,311,6.9,37.3,86,0.00,,,0.00,VWS V14.01,2013-03-13 17:03:00,
2013-03-13 13:08:00,29.6,24.3,29.86,NNW,342,21.6,37.3,80,0.00,,,0.00,VWS V14.01,2013-03-13 17:08:00,
2013-03-13 13:13:00,29.4,24.0,29.86,WNW,300,4.3,37.3,80,0.00,,,0.00,VWS V14.01,2013-03-13 17:13:00,
2013-03-13 13:18:00,29.4,24.2,29.86,NNE,18,13.6,37.3,81,0.00,,,0.00,VWS V14.01,2013-03-13 17:18:00,
2013-03-13 13:23:00,29.5,23.6,29.87,North,6,12.3,37.3,78,0.00,,,0.00,VWS V14.01,2013-03-13 17:23:00,
2013-03-13 13:28:00,28.7,24.8,29.87,North,353,11.0,44.9,85,0.00,,,0.00,VWS V14.01,2013-03-13 17:28:00,
2013-03-13 13:34:00,26.4,24.5,29.88,NNW,347,26.7,61.3,92,0.00,,,0.00,VWS V14.01,2013-03-13 17:34:00,
2013-03-13 13:39:00,25.3,23.6,29.88,NNE,20,15.3,61.3,93,0.00,,,0.00,VWS V14.01,2013-03-13 17:39:00,
2013-03-13 13:44:00,24.9,23.4,29.88,East,84,0.0,61.3,94,0.00,,,0.00,VWS V14.01,2013-03-13 17:44:00,
2013-03-13 13:49:00,25.0,23.5,29.88,ESE,107,12.3,61.3,94,0.00,,,0.00,VWS V14.01,2013-03-13 17:49:00,
2013-03-13 13:55:00,25.3,23.6,29.88,ESE,112,23.1,61.3,93,0.00,,,0.00,VWS V14.01,2013-03-13 17:55:00,
2013-03-13 14:00:00,25.5,23.3,29.88,North,359,5.2,27.8,91,0.00,,,0.00,VWS V14.01,2013-03-13 18:00:00,
2013-03-13 14:05:00,26.0,24.0,29.88,NE,56,8.8,27.8,92,0.00,,,0.00,VWS V14.01,2013-03-13 18:05:00,
2013-03-13 14:10:00,26.4,24.2,29.88,SSE,167,5.6,27.8,91,0.00,,,0.00,VWS V14.01,2013-03-13 18:10:00,
2013-03-13 14:16:00,26.6,24.2,29.88,ENE,62,0.0,27.8,90,0.00,,,0.00,VWS V14.01,2013-03-13 18:16:00,
2013-03-13 14:21:00,27.1,24.7,29.88,North,8,14.0,27.8,91,0.00,,,0.00,VWS V14.01,2013-03-13 18:21:00,
2013-03-13 14:27:00,27.7,24.5,29.88,NNE,14,2.4,27.8,88,0.00,,,0.00,VWS V14.01,2013-03-13 18:27:00,
2013-03-13 14:32:00,27.2,24.5,29.88,North,350,5.4,27.8,89,0.00,,,0.00,VWS V14.01,2013-03-13 18:32:00,
2013-03-13 14:37:00,26.7,24.2,29.88,ESE,117,14.4,27.8,90,0.00,,,0.00,VWS V14.01,2013-03-13 18:37:00,
2013-03-13 14:42:00,26.6,24.4,29.88,North,354,5.0,27.8,91,0.00,,,0.00,VWS V14.01,2013-03-13 18:42:00,
2013-03-13 14:48:00,26.5,24.0,29.88,North,11,9.1,28.9,90,0.00,,,0.00,VWS V14.01,2013-03-13 18:48:00,
2013-03-13 14:53:00,26.4,23.8,29.87,North,7,4.5,30.2,90,0.00,,,0.00,VWS V14.01,2013-03-13 18:53:00,
2013-03-13 14:58:00,26.6,23.7,29.87,NE,46,2.8,27.4,89,0.00,,,0.00,VWS V14.01,2013-03-13 18:58:00,
2013-03-13 15:03:00,26.9,23.9,29.87,NNW,340,7.5,27.4,88,0.00,,,0.00,VWS V14.01,2013-03-13 19:03:00,
2013-03-13 15:08:00,27.0,23.8,29.87,North,359,6.9,27.4,88,0.00,,,0.00,VWS V14.01,2013-03-13 19:08:00,
2013-03-13 15:13:00,26.8,23.9,29.87,North,0,23.3,35.2,89,0.00,,,0.00,VWS V14.01,2013-03-13 19:13:00,
2013-03-13 15:18:00,26.1,23.4,29.87,NNE,28,10.8,35.2,90,0.00,,,0.00,VWS V14.01,2013-03-13 19:18:00,
2013-03-13 15:23:00,25.7,22.7,29.87,NNE,13,14.5,35.2,88,0.00,,,0.00,VWS V14.01,2013-03-13 19:23:00,
2013-03-13 15:29:00,25.9,22.0,29.87,NNE,17,9.1,35.4,85,0.00,,,0.00,VWS V14.01,2013-03-13 19:29:00,
2013-03-13 15:34:00,25.8,21.9,29.87,NNW,343,0.6,35.4,85,0.00,,,0.00,VWS V14.01,2013-03-13 19:34:00,
2013-03-13 15:39:00,25.8,21.9,29.87,East,91,26.5,55.2,85,0.00,,,0.00,VWS V14.01,2013-03-13 19:39:00,
2013-03-13 15:44:00,25.6,21.3,29.87,North,359,26.8,55.2,84,0.00,,,0.00,VWS V14.01,2013-03-13 19:44:00,
2013-03-13 15:49:00,25.8,21.3,29.87,NE,51,8.8,55.2,83,0.00,,,0.00,VWS V14.01,2013-03-13 19:49:00,
2013-03-13 15:54:00,26.2,21.5,29.88,North,11,14.4,55.2,82,0.00,,,0.00,VWS V14.01,2013-03-13 19:54:00,
2013-03-13 15:59:00,26.3,21.4,29.87,North,3,3.2,35.4,81,0.00,,,0.00,VWS V14.01,2013-03-13 19:59:00,
2013-03-13 16:05:00,26.4,21.0,29.88,NW,304,28.1,35.4,80,0.00,,,0.00,VWS V14.01,2013-03-13 20:05:00,
2013-03-13 16:10:00,26.0,21.3,29.88,NE,46,15.7,35.4,82,0.00,,,0.00,VWS V14.01,2013-03-13 20:10:00,
2013-03-13 16:15:00,25.9,21.1,29.88,NNW,345,8.8,44.2,82,0.00,,,0.00,VWS V14.01,2013-03-13 20:15:00,
2013-03-13 16:20:00,26.4,20.6,29.88,NE,37,19.6,44.2,78,0.00,,,0.00,VWS V14.01,2013-03-13 20:20:00,
2013-03-13 16:26:00,27.3,19.8,29.88,NE,48,12.1,44.2,73,0.00,,,0.00,VWS V14.01,2013-03-13 20:26:00,
2013-03-13 16:31:00,27.4,19.6,29.88,SSW,200,12.9,44.2,72,0.00,,,0.00,VWS V14.01,2013-03-13 20:31:00,
2013-03-13 16:36:00,27.5,19.1,29.88,NNW,343,4.7,44.2,70,0.00,,,0.00,VWS V14.01,2013-03-13 20:36:00,
2013-03-13 16:42:00,28.0,19.1,29.88,North,359,12.5,44.2,69,0.00,,,0.00,VWS V14.01,2013-03-13 20:42:00,
2013-03-13 16:47:00,28.6,19.6,29.88,SE,142,10.8,44.2,68,0.00,,,0.00,VWS V14.01,2013-03-13 20:47:00,
2013-03-13 16:52:00,27.9,19.6,29.89,NNW,332,17.7,46.2,71,0.00,,,0.00,VWS V14.01,2013-03-13 20:52:00,
2013-03-13 16:57:00,26.9,19.6,29.89,North,359,14.4,27.8,74,0.00,,,0.00,VWS V14.01,2013-03-13 20:57:00,
2013-03-13 17:02:00,26.4,18.6,29.89,NE,42,22.9,38.2,72,0.00,,,0.00,VWS V14.01,2013-03-13 21:02:00,
2013-03-13 17:07:00,26.1,16.5,29.89,North,1,3.9,45.7,66,0.00,,,0.00,VWS V14.01,2013-03-13 21:07:00,
2013-03-13 17:13:00,26.3,16.2,29.89,North,357,8.0,45.7,65,0.00,,,0.00,VWS V14.01,2013-03-13 21:13:00,
2013-03-13 17:18:00,26.7,16.7,29.89,ENE,68,8.4,45.7,65,0.00,,,0.00,VWS V14.01,2013-03-13 21:18:00,
2013-03-13 17:23:00,27.1,17.2,29.89,North,359,1.3,45.7,66,0.00,,,0.00,VWS V14.01,2013-03-13 21:23:00,
2013-03-13 17:28:00,27.0,17.1,29.90,ENE,58,3.9,45.7,66,0.00,,,0.00,VWS V14.01,2013-03-13 21:28:00,
2013-03-13 17:33:00,26.3,17.1,29.90,North,359,4.8,45.7,68,0.00,,,0.00,VWS V14.01,2013-03-13 21:33:00,
2013-03-13 17:39:00,25.5,19.2,29.91,NW,323,15.8,47.9,77,0.00,,,0.00,VWS V14.01,2013-03-13 21:39:00,
2013-03-13 17:44:00,25.2,18.3,29.91,North,359,3.5,47.9,75,0.00,,,0.00,VWS V14.01,2013-03-13 21:44:00,
2013-03-13 17:49:00,24.8,18.3,29.91,NNW,332,11.0,47.9,76,0.00,,,0.00,VWS V14.01,2013-03-13 21:49:00,
2013-03-13 17:54:00,24.4,19.8,29.92,East,86,32.2,47.9,82,0.00,,,0.00,VWS V14.01,2013-03-13 21:54:00,
2013-03-13 17:59:00,23.4,21.8,29.92,North,357,2.6,34.5,94,0.00,,,0.00,VWS V14.01,2013-03-13 21:59:00,
2013-03-13 18:04:00,22.8,21.6,29.92,North,359,13.2,40.3,95,0.00,,,0.00,VWS V14.01,2013-03-13 22:04:00,
2013-03-13 18:09:00,22.2,21.2,29.92,NNE,22,0.0,45.7,96,0.00,,,0.00,VWS V14.01,2013-03-13 22:09:00,
2013-03-13 18:15:00,21.9,20.6,29.92,ENE,77,19.6,45.7,94,0.00,,,0.00,VWS V14.01,2013-03-13 22:15:00,
2013-03-13 18:20:00,21.8,19.8,29.92,NW,308,4.3,45.7,92,0.00,,,0.00,VWS V14.01,2013-03-13 22:20:00,
2013-03-13 18:25:00,21.8,19.3,29.92,NNW,332,32.6,45.7,90,0.00,,,0.00,VWS V14.01,2013-03-13 22:25:00,
2013-03-13 18:30:00,21.8,19.6,29.92,North,0,13.6,63.0,91,0.00,,,0.00,VWS V14.01,2013-03-13 22:30:00,
2013-03-13 18:35:00,21.7,19.7,29.92,NW,307,4.8,63.0,92,0.00,,,0.00,VWS V14.01,2013-03-13 22:35:00,
2013-03-13 18:40:00,21.8,19.8,29.93,North,359,12.1,63.0,92,0.00,,,0.00,VWS V14.01,2013-03-13 22:40:00,
2013-03-13 18:46:00,21.9,19.8,29.93,NW,319,8.9,63.0,91,0.00,,,0.00,VWS V14.01,2013-03-13 22:46:00,
2013-03-13 18:51:00,21.7,19.5,29.93,NNE,14,13.2,63.0,91,0.00,,,0.00,VWS V14.01,2013-03-13 22:51:00,
2013-03-13 18:56:00,21.7,19.6,29.93,North,359,8.2,63.0,91,0.00,,,0.00,VWS V14.01,2013-03-13 22:56:00,
2013-03-13 19:02:00,21.8,19.6,29.94,East,82,11.0,27.8,91,0.00,,,0.00,VWS V14.01,2013-03-13 23:02:00,
2013-03-13 19:07:00,21.8,19.7,29.94,NNW,338,8.4,27.8,92,0.00,,,0.00,VWS V14.01,2013-03-13 23:07:00,
2013-03-13 19:12:00,21.5,20.0,29.94,North,8,10.4,31.5,94,0.00,,,0.00,VWS V14.01,2013-03-13 23:12:00,
2013-03-13 19:17:00,20.8,19.7,29.95,NE,42,8.9,34.9,96,0.00,,,0.00,VWS V14.01,2013-03-13 23:17:00,
2013-03-13 19:22:00,20.5,19.5,29.95,North,357,7.5,36.2,96,0.00,,,0.00,VWS V14.01,2013-03-13 23:22:00,
2013-03-13 19:27:00,20.4,19.5,29.95,North,359,3.9,36.2,96,0.00,,,0.00,VWS V14.01,2013-03-13 23:27:00,
2013-03-13 19:32:00,20.3,19.4,29.95,North,356,11.2,36.2,96,0.00,,,0.00,VWS V14.01,2013-03-13 23:32:00,
2013-03-13 19:37:00,20.3,19.4,29.95,NNW,347,8.4,36.2,96,0.00,,,0.00,VWS V14.01,2013-03-13 23:37:00,
2013-03-13 19:42:00,20.4,19.5,29.95,East,91,15.8,36.2,96,0.00,,,0.00,VWS V14.01,2013-03-13 23:42:00,
2013-03-13 19:48:00,20.2,19.4,29.95,NW,322,10.4,42.1,96,0.00,,,0.00,VWS V14.01,2013-03-13 23:48:00,
2013-03-13 19:53:00,19.9,19.0,29.95,NNW,338,13.4,50.3,96,0.00,,,0.00,VWS V14.01,2013-03-13 23:53:00,
2013-03-13 19:58:00,19.7,18.8,29.95,North,359,14.9,27.8,96,0.00,,,0.00,VWS V14.01,2013-03-13 23:58:00,
2013-03-13 20:04:00,19.6,18.6,29.95,North,359,8.2,36.2,96,0.00,,,0.00,VWS V14.01,2013-03-14 00:04:00,
2013-03-13 20:09:00,19.6,18.6,29.95,NE,44,19.9,42.9,96,0.00,,,0.00,VWS V14.01,2013-03-14 00:09:00,
2013-03-13 20:14:00,19.6,18.6,29.96,North,359,8.4,49.0,96,0.00,,,0.00,VWS V14.01,2013-03-14 00:14:00,
2013-03-13 20:19:00,19.7,18.6,29.95,NE,49,30.4,52.2,96,0.00,,,0.00,VWS V14.01,2013-03-14 00:19:00,
2013-03-13 20:25:00,19.6,18.6,29.96,North,350,9.3,52.2,96,0.00,,,0.00,VWS V14.01,2013-03-14 00:25:00,
2013-03-13 20:30:00,19.5,18.4,29.96,NNW,345,8.0,52.2,95,0.00,,,0.00,VWS V14.01,2013-03-14 00:30:00,
2013-03-13 20:35:00,19.6,18.5,29.96,NNW,340,17.3,52.2,95,0.00,,,0.00,VWS V14.01,2013-03-14 00:35:00,
2013-03-13 20:40:00,19.7,18.6,29.97,ENE,60,34.7,52.2,95,0.00,,,0.00,VWS V14.01,2013-03-14 00:40:00,
2013-03-13 20:45:00,19.8,18.6,29.97,ESE,118,11.9,52.2,95,0.00,,,0.00,VWS V14.01,2013-03-14 00:45:00,
2013-03-13 20:50:00,19.8,18.6,29.97,North,359,12.1,52.2,95,0.00,,,0.00,VWS V14.01,2013-03-14 00:50:00,
2013-03-13 20:56:00,19.8,18.6,29.97,North,353,12.7,52.2,95,0.00,,,0.00,VWS V14.01,2013-03-14 00:56:00,
2013-03-13 21:01:00,19.8,18.5,29.97,NW,322,13.0,41.8,95,0.00,,,0.00,VWS V14.01,2013-03-14 01:01:00,
2013-03-13 21:06:00,19.7,18.3,29.96,NNE,27,8.9,41.8,94,0.00,,,0.00,VWS V14.01,2013-03-14 01:06:00,
2013-03-13 21:11:00,19.7,18.2,29.96,NNE,15,17.0,43.2,94,0.00,,,0.00,VWS V14.01,2013-03-14 01:11:00,
2013-03-13 21:16:00,19.6,18.0,29.96,North,8,5.2,43.2,94,0.00,,,0.00,VWS V14.01,2013-03-14 01:16:00,
2013-03-13 21:22:00,19.9,18.3,29.96,ENE,76,16.8,43.2,94,0.00,,,0.00,VWS V14.01,2013-03-14 01:22:00,
2013-03-13 21:27:00,19.7,17.9,29.96,East,83,12.7,43.2,92,0.00,,,0.00,VWS V14.01,2013-03-14 01:27:00,
2013-03-13 21:32:00,19.7,17.9,29.96,NNE,24,14.2,43.2,93,0.00,,,0.00,VWS V14.01,2013-03-14 01:32:00,
2013-03-13 21:37:00,19.9,17.8,29.97,NW,326,17.1,43.2,91,0.00,,,0.00,VWS V14.01,2013-03-14 01:37:00,
2013-03-13 21:42:00,19.8,17.8,29.97,NW,322,30.8,43.2,92,0.00,,,0.00,VWS V14.01,2013-03-14 01:42:00,
2013-03-13 21:47:00,19.7,17.5,29.96,NE,52,7.5,45.3,91,0.00,,,0.00,VWS V14.01,2013-03-14 01:47:00,
2013-03-13 21:53:00,19.7,17.8,29.97,ESE,111,14.9,45.3,92,0.00,,,0.00,VWS V14.01,2013-03-14 01:53:00,
2013-03-13 21:58:00,19.7,17.8,29.97,NNW,328,9.5,30.6,92,0.00,,,0.00,VWS V14.01,2013-03-14 01:58:00,
2013-03-13 22:03:00,19.7,17.7,29.97,NE,42,12.1,30.6,92,0.00,,,0.00,VWS V14.01,2013-03-14 02:03:00,
2013-03-13 22:08:00,19.8,17.7,29.97,NNW,339,17.1,30.6,91,0.00,,,0.00,VWS V14.01,2013-03-14 02:08:00,
2013-03-13 22:13:00,19.8,17.9,29.97,ENE,69,6.7,30.6,92,0.00,,,0.00,VWS V14.01,2013-03-14 02:13:00,
2013-03-13 22:18:00,19.7,17.8,29.97,NNW,340,29.1,30.6,92,0.00,,,0.00,VWS V14.01,2013-03-14 02:18:00,
2013-03-13 22:24:00,19.6,17.4,29.97,NNE,22,17.1,48.1,91,0.00,,,0.00,VWS V14.01,2013-03-14 02:24:00,
2013-03-13 22:29:00,19.8,17.3,29.97,NNW,332,32.4,48.1,90,0.00,,,0.00,VWS V14.01,2013-03-14 02:29:00,
2013-03-13 22:34:00,19.7,17.1,29.97,North,359,5.4,48.1,90,0.00,,,0.00,VWS V14.01,2013-03-14 02:34:00,
2013-03-13 22:39:00,19.4,16.6,29.97,NE,49,9.5,65.8,89,0.00,,,0.00,VWS V14.01,2013-03-14 02:39:00,
2013-03-13 22:44:00,19.3,16.4,29.97,NE,42,14.0,65.8,88,0.00,,,0.00,VWS V14.01,2013-03-14 02:44:00,
2013-03-13 22:49:00,19.2,16.4,29.97,NNW,328,14.7,65.8,88,0.00,,,0.00,VWS V14.01,2013-03-14 02:49:00,
2013-03-13 22:54:00,19.3,16.5,29.98,North,359,8.8,65.8,88,0.00,,,0.00,VWS V14.01,2013-03-14 02:54:00,
2013-03-13 23:00:00,19.3,16.5,29.98,North,10,10.6,31.1,88,0.00,,,0.00,VWS V14.01,2013-03-14 03:00:00,
2013-03-13 23:05:00,19.2,16.5,29.97,NNW,336,5.6,39.1,89,0.00,,,0.00,VWS V14.01,2013-03-14 03:05:00,
2013-03-13 23:10:00,19.2,16.9,29.98,NE,53,9.3,48.7,90,0.00,,,0.00,VWS V14.01,2013-03-14 03:10:00,
2013-03-13 23:15:00,19.2,17.0,29.98,NNE,24,7.8,48.7,91,0.00,,,0.00,VWS V14.01,2013-03-14 03:15:00,
2013-03-13 23:20:00,19.1,16.9,29.97,North,359,3.4,48.7,91,0.00,,,0.00,VWS V14.01,2013-03-14 03:20:00,
2013-03-13 23:25:00,19.1,17.2,29.98,NW,319,14.5,48.7,92,0.00,,,0.00,VWS V14.01,2013-03-14 03:25:00,
2013-03-13 23:31:00,19.1,17.5,29.97,NE,51,13.4,48.7,93,0.00,,,0.00,VWS V14.01,2013-03-14 03:31:00,
2013-03-13 23:36:00,19.1,17.6,29.98,NNW,339,5.2,48.7,94,0.00,,,0.00,VWS V14.01,2013-03-14 03:36:00,
2013-03-13 23:41:00,19.0,17.7,29.98,North,349,16.2,53.3,95,0.00,,,0.00,VWS V14.01,2013-03-14 03:41:00,
2013-03-13 23:47:00,18.9,17.9,29.98,ENE,65,16.0,53.3,96,0.00,,,0.00,VWS V14.01,2013-03-14 03:47:00,
2013-03-13 23:52:00,18.6,17.6,29.98,NE,38,8.9,53.3,96,0.00,,,0.00,VWS V14.01,2013-03-14 03:52:00,
2013-03-13 23:57:00,18.7,17.8,29.98,NE,51,6.7,29.3,96,0.00,,,0.00,VWS V14.01,2013-03-14 03:57:00,